sensor_id;sensor_type;location;lat;lon;timestamp;temperature;humidity
14079;DHT22;7115;50.150;8.568;2023-07-16T00:00:05;20.80;99.90
14079;DHT22;7115;50.150;8.568;2023-07-16T00:02:34;20.80;99.90
14079;DHT22;7115;50.150;8.568;2023-07-16T00:05:02;20.80;99.90
14079;DHT22;7115;50.150;8.568;2023-07-16T00:07:29;20.80;99.90
14079;DHT22;7115;50.150;8.568;2023-07-16T00:09:56;20.80;99.90
14079;DHT22;7115;50.150;8.568;2023-07-16T00:12:25;20.80;99.90
14079;DHT22;7115;50.150;8.568;2023-07-16T00:14:52;20.70;99.90
14079;DHT22;7115;50.150;8.568;2023-07-16T00:17:18;20.70;99.90
14079;DHT22;7115;50.150;8.568;2023-07-16T00:19:45;20.70;99.90
14079;DHT22;7115;50.150;8.568;2023-07-16T00:22:12;20.70;99.90
14079;DHT22;7115;50.150;8.568;2023-07-16T00:24:39;20.60;99.90
14079;DHT22;7115;50.150;8.568;2023-07-16T00:27:06;20.60;99.90
14079;DHT22;7115;50.150;8.568;2023-07-16T00:29:34;20.60;99.90
14079;DHT22;7115;50.150;8.568;2023-07-16T00:32:01;20.60;99.90
14079;DHT22;7115;50.150;8.568;2023-07-16T00:34:28;20.60;99.90
14079;DHT22;7115;50.150;8.568;2023-07-16T00:36:55;20.50;99.90
14079;DHT22;7115;50.150;8.568;2023-07-16T00:39:28;20.60;99.90
14079;DHT22;7115;50.150;8.568;2023-07-16T00:41:55;20.50;99.90
14079;DHT22;7115;50.150;8.568;2023-07-16T00:44:22;20.50;99.90
14079;DHT22;7115;50.150;8.568;2023-07-16T00:46:50;20.50;99.90
14079;DHT22;7115;50.150;8.568;2023-07-16T00:49:18;20.50;99.90
14079;DHT22;7115;50.150;8.568;2023-07-16T00:51:46;20.50;99.90
14079;DHT22;7115;50.150;8.568;2023-07-16T00:54:13;20.50;99.90
14079;DHT22;7115;50.150;8.568;2023-07-16T00:56:40;20.50;99.90
14079;DHT22;7115;50.150;8.568;2023-07-16T00:59:07;20.50;99.90
14079;DHT22;7115;50.150;8.568;2023-07-16T01:01:34;20.40;99.90
14079;DHT22;7115;50.150;8.568;2023-07-16T01:04:02;20.40;99.90
14079;DHT22;7115;50.150;8.568;2023-07-16T01:06:34;20.40;99.90
14079;DHT22;7115;50.150;8.568;2023-07-16T01:09:03;20.40;99.90
14079;DHT22;7115;50.150;8.568;2023-07-16T01:11:34;20.40;99.90
14079;DHT22;7115;50.150;8.568;2023-07-16T01:14:02;20.40;99.90
14079;DHT22;7115;50.150;8.568;2023-07-16T01:16:30;20.40;99.90
14079;DHT22;7115;50.150;8.568;2023-07-16T01:18:58;20.40;99.90
14079;DHT22;7115;50.150;8.568;2023-07-16T01:21:31;20.30;99.90
14079;DHT22;7115;50.150;8.568;2023-07-16T01:24:11;20.40;99.90
14079;DHT22;7115;50.150;8.568;2023-07-16T01:26:55;20.30;99.90
14079;DHT22;7115;50.150;8.568;2023-07-16T01:29:33;20.30;99.90
14079;DHT22;7115;50.150;8.568;2023-07-16T01:32:04;20.30;99.90
14079;DHT22;7115;50.150;8.568;2023-07-16T01:34:33;20.20;99.90
14079;DHT22;7115;50.150;8.568;2023-07-16T01:37:02;20.20;99.90
14079;DHT22;7115;50.150;8.568;2023-07-16T01:39:30;20.20;99.90
14079;DHT22;7115;50.150;8.568;2023-07-16T01:41:57;20.20;99.90
14079;DHT22;7115;50.150;8.568;2023-07-16T01:44:23;20.20;99.90
14079;DHT22;7115;50.150;8.568;2023-07-16T01:47:06;20.20;99.90
14079;DHT22;7115;50.150;8.568;2023-07-16T01:49:34;20.20;99.90
14079;DHT22;7115;50.150;8.568;2023-07-16T01:52:02;20.20;99.90
14079;DHT22;7115;50.150;8.568;2023-07-16T01:54:29;20.10;99.90
14079;DHT22;7115;50.150;8.568;2023-07-16T01:56:56;20.10;99.90
14079;DHT22;7115;50.150;8.568;2023-07-16T01:59:23;20.00;99.90
14079;DHT22;7115;50.150;8.568;2023-07-16T02:01:50;19.90;99.90
14079;DHT22;7115;50.150;8.568;2023-07-16T02:04:18;19.90;99.90
14079;DHT22;7115;50.150;8.568;2023-07-16T02:06:45;19.90;99.90
14079;DHT22;7115;50.150;8.568;2023-07-16T02:09:14;19.90;99.90
14079;DHT22;7115;50.150;8.568;2023-07-16T02:11:41;19.90;99.90
14079;DHT22;7115;50.150;8.568;2023-07-16T02:14:08;19.80;99.90
14079;DHT22;7115;50.150;8.568;2023-07-16T02:16:35;19.90;99.90
14079;DHT22;7115;50.150;8.568;2023-07-16T02:19:02;19.80;99.90
14079;DHT22;7115;50.150;8.568;2023-07-16T02:21:30;19.80;99.90
14079;DHT22;7115;50.150;8.568;2023-07-16T02:23:57;19.80;99.90
14079;DHT22;7115;50.150;8.568;2023-07-16T02:26:25;19.80;99.90
14079;DHT22;7115;50.150;8.568;2023-07-16T02:28:52;19.80;99.90
14079;DHT22;7115;50.150;8.568;2023-07-16T02:31:19;19.80;99.90
14079;DHT22;7115;50.150;8.568;2023-07-16T02:33:46;19.80;99.90
14079;DHT22;7115;50.150;8.568;2023-07-16T02:36:12;19.70;99.90
14079;DHT22;7115;50.150;8.568;2023-07-16T02:38:41;19.70;99.90
14079;DHT22;7115;50.150;8.568;2023-07-16T02:41:08;19.70;99.90
14079;DHT22;7115;50.150;8.568;2023-07-16T02:43:35;19.70;99.90
14079;DHT22;7115;50.150;8.568;2023-07-16T02:46:02;19.70;99.90
14079;DHT22;7115;50.150;8.568;2023-07-16T02:48:29;19.80;99.90
14079;DHT22;7115;50.150;8.568;2023-07-16T02:50:55;19.60;99.90
14079;DHT22;7115;50.150;8.568;2023-07-16T02:53:22;19.70;99.90
14079;DHT22;7115;50.150;8.568;2023-07-16T02:55:50;19.60;99.90
14079;DHT22;7115;50.150;8.568;2023-07-16T02:58:17;19.60;99.90
14079;DHT22;7115;50.150;8.568;2023-07-16T03:00:44;19.60;99.90
14079;DHT22;7115;50.150;8.568;2023-07-16T03:03:11;19.60;99.90
14079;DHT22;7115;50.150;8.568;2023-07-16T03:05:38;19.60;99.90
14079;DHT22;7115;50.150;8.568;2023-07-16T03:08:05;19.50;99.90
14079;DHT22;7115;50.150;8.568;2023-07-16T03:10:32;19.50;99.90
14079;DHT22;7115;50.150;8.568;2023-07-16T03:13:00;19.40;99.90
14079;DHT22;7115;50.150;8.568;2023-07-16T03:15:27;19.40;99.90
14079;DHT22;7115;50.150;8.568;2023-07-16T03:17:54;19.40;99.90
14079;DHT22;7115;50.150;8.568;2023-07-16T03:20:21;19.30;99.90
14079;DHT22;7115;50.150;8.568;2023-07-16T03:22:48;19.30;99.90
14079;DHT22;7115;50.150;8.568;2023-07-16T03:25:15;19.20;99.90
14079;DHT22;7115;50.150;8.568;2023-07-16T03:27:42;19.30;99.90
14079;DHT22;7115;50.150;8.568;2023-07-16T03:30:10;19.10;99.90
14079;DHT22;7115;50.150;8.568;2023-07-16T03:32:37;19.10;99.90
14079;DHT22;7115;50.150;8.568;2023-07-16T03:35:17;19.10;99.90
14079;DHT22;7115;50.150;8.568;2023-07-16T03:37:44;19.00;99.90
14079;DHT22;7115;50.150;8.568;2023-07-16T03:40:15;18.90;99.90
14079;DHT22;7115;50.150;8.568;2023-07-16T03:42:43;18.90;99.90
14079;DHT22;7115;50.150;8.568;2023-07-16T03:45:11;18.90;99.90
14079;DHT22;7115;50.150;8.568;2023-07-16T03:47:38;18.80;99.90
14079;DHT22;7115;50.150;8.568;2023-07-16T03:50:06;18.80;99.90
14079;DHT22;7115;50.150;8.568;2023-07-16T03:52:33;18.80;99.90
14079;DHT22;7115;50.150;8.568;2023-07-16T03:55:01;18.80;99.90
14079;DHT22;7115;50.150;8.568;2023-07-16T03:57:28;18.80;99.90
14079;DHT22;7115;50.150;8.568;2023-07-16T03:59:55;18.70;99.90
14079;DHT22;7115;50.150;8.568;2023-07-16T04:02:24;18.90;99.90
14079;DHT22;7115;50.150;8.568;2023-07-16T04:04:51;18.80;99.90
14079;DHT22;7115;50.150;8.568;2023-07-16T04:07:18;18.80;99.90
14079;DHT22;7115;50.150;8.568;2023-07-16T04:09:45;18.70;99.90
14079;DHT22;7115;50.150;8.568;2023-07-16T04:12:12;18.70;99.90
14079;DHT22;7115;50.150;8.568;2023-07-16T04:14:39;18.70;99.90
14079;DHT22;7115;50.150;8.568;2023-07-16T04:17:06;18.70;99.90
14079;DHT22;7115;50.150;8.568;2023-07-16T04:19:34;18.60;99.90
14079;DHT22;7115;50.150;8.568;2023-07-16T04:22:01;18.60;99.90
14079;DHT22;7115;50.150;8.568;2023-07-16T04:24:28;18.60;99.90
14079;DHT22;7115;50.150;8.568;2023-07-16T04:26:55;18.60;99.90
14079;DHT22;7115;50.150;8.568;2023-07-16T04:29:22;18.60;99.90
14079;DHT22;7115;50.150;8.568;2023-07-16T04:31:49;18.60;99.90
14079;DHT22;7115;50.150;8.568;2023-07-16T04:34:16;18.60;99.90
14079;DHT22;7115;50.150;8.568;2023-07-16T04:36:44;18.60;99.90
14079;DHT22;7115;50.150;8.568;2023-07-16T04:39:11;18.60;99.90
14079;DHT22;7115;50.150;8.568;2023-07-16T04:41:38;18.70;99.90
14079;DHT22;7115;50.150;8.568;2023-07-16T04:44:05;18.70;99.90
14079;DHT22;7115;50.150;8.568;2023-07-16T04:46:32;18.70;99.90
14079;DHT22;7115;50.150;8.568;2023-07-16T04:48:59;18.70;99.90
14079;DHT22;7115;50.150;8.568;2023-07-16T04:51:26;18.70;99.90
14079;DHT22;7115;50.150;8.568;2023-07-16T04:53:54;18.70;99.90
14079;DHT22;7115;50.150;8.568;2023-07-16T04:56:21;18.70;99.90
14079;DHT22;7115;50.150;8.568;2023-07-16T04:58:47;18.70;99.90
14079;DHT22;7115;50.150;8.568;2023-07-16T05:01:14;18.70;99.90
14079;DHT22;7115;50.150;8.568;2023-07-16T05:03:41;18.70;99.90
14079;DHT22;7115;50.150;8.568;2023-07-16T05:06:09;18.70;99.90
14079;DHT22;7115;50.150;8.568;2023-07-16T05:08:36;18.70;99.90
14079;DHT22;7115;50.150;8.568;2023-07-16T05:11:04;18.80;99.90
14079;DHT22;7115;50.150;8.568;2023-07-16T05:13:31;18.80;99.90
14079;DHT22;7115;50.150;8.568;2023-07-16T05:15:58;18.80;99.90
14079;DHT22;7115;50.150;8.568;2023-07-16T05:18:25;18.90;99.90
14079;DHT22;7115;50.150;8.568;2023-07-16T05:20:52;18.90;99.90
14079;DHT22;7115;50.150;8.568;2023-07-16T05:23:19;19.00;99.90
14079;DHT22;7115;50.150;8.568;2023-07-16T05:25:46;19.00;99.90
14079;DHT22;7115;50.150;8.568;2023-07-16T05:28:15;19.00;99.90
14079;DHT22;7115;50.150;8.568;2023-07-16T05:30:42;19.10;99.90
14079;DHT22;7115;50.150;8.568;2023-07-16T05:33:10;19.10;99.90
14079;DHT22;7115;50.150;8.568;2023-07-16T05:35:37;19.10;99.90
14079;DHT22;7115;50.150;8.568;2023-07-16T05:38:05;19.20;99.90
14079;DHT22;7115;50.150;8.568;2023-07-16T05:40:33;19.10;99.90
14079;DHT22;7115;50.150;8.568;2023-07-16T05:42:59;19.00;99.90
14079;DHT22;7115;50.150;8.568;2023-07-16T05:45:28;19.00;99.90
14079;DHT22;7115;50.150;8.568;2023-07-16T05:47:55;19.10;99.90
14079;DHT22;7115;50.150;8.568;2023-07-16T05:50:21;19.00;99.90
14079;DHT22;7115;50.150;8.568;2023-07-16T05:52:48;19.10;99.90
14079;DHT22;7115;50.150;8.568;2023-07-16T05:55:16;19.10;99.90
14079;DHT22;7115;50.150;8.568;2023-07-16T05:57:43;19.10;99.90
14079;DHT22;7115;50.150;8.568;2023-07-16T06:00:11;19.10;99.90
14079;DHT22;7115;50.150;8.568;2023-07-16T06:02:39;19.20;99.90
14079;DHT22;7115;50.150;8.568;2023-07-16T06:05:07;19.20;99.90
14079;DHT22;7115;50.150;8.568;2023-07-16T06:07:34;19.20;99.90
14079;DHT22;7115;50.150;8.568;2023-07-16T06:10:01;19.20;99.90
14079;DHT22;7115;50.150;8.568;2023-07-16T06:12:28;19.30;99.90
14079;DHT22;7115;50.150;8.568;2023-07-16T06:14:55;19.20;99.90
14079;DHT22;7115;50.150;8.568;2023-07-16T06:17:21;19.30;99.90
14079;DHT22;7115;50.150;8.568;2023-07-16T06:19:50;19.40;99.90
14079;DHT22;7115;50.150;8.568;2023-07-16T06:22:18;19.50;99.90
14079;DHT22;7115;50.150;8.568;2023-07-16T06:24:45;19.60;99.90
14079;DHT22;7115;50.150;8.568;2023-07-16T06:27:12;19.70;99.90
14079;DHT22;7115;50.150;8.568;2023-07-16T06:29:39;19.60;99.90
14079;DHT22;7115;50.150;8.568;2023-07-16T06:32:07;19.70;99.90
14079;DHT22;7115;50.150;8.568;2023-07-16T06:34:34;19.70;99.90
14079;DHT22;7115;50.150;8.568;2023-07-16T06:37:02;19.70;99.90
14079;DHT22;7115;50.150;8.568;2023-07-16T06:39:30;19.80;99.90
14079;DHT22;7115;50.150;8.568;2023-07-16T06:41:58;19.80;99.90
14079;DHT22;7115;50.150;8.568;2023-07-16T06:44:25;19.80;99.90
14079;DHT22;7115;50.150;8.568;2023-07-16T06:46:52;19.80;99.90
14079;DHT22;7115;50.150;8.568;2023-07-16T06:49:21;19.90;99.90
14079;DHT22;7115;50.150;8.568;2023-07-16T06:51:48;20.00;99.90
14079;DHT22;7115;50.150;8.568;2023-07-16T06:54:16;20.00;99.90
14079;DHT22;7115;50.150;8.568;2023-07-16T06:56:43;20.10;99.90
14079;DHT22;7115;50.150;8.568;2023-07-16T06:59:10;20.10;99.90
14079;DHT22;7115;50.150;8.568;2023-07-16T07:01:37;20.10;99.90
14079;DHT22;7115;50.150;8.568;2023-07-16T07:04:04;20.20;99.90
14079;DHT22;7115;50.150;8.568;2023-07-16T07:06:31;20.30;99.90
14079;DHT22;7115;50.150;8.568;2023-07-16T07:08:58;20.40;99.90
14079;DHT22;7115;50.150;8.568;2023-07-16T07:11:26;20.40;99.90
14079;DHT22;7115;50.150;8.568;2023-07-16T07:13:53;20.50;99.90
14079;DHT22;7115;50.150;8.568;2023-07-16T07:16:20;20.50;99.90
14079;DHT22;7115;50.150;8.568;2023-07-16T07:18:47;20.60;99.90
14079;DHT22;7115;50.150;8.568;2023-07-16T07:21:14;20.60;99.90
14079;DHT22;7115;50.150;8.568;2023-07-16T07:23:42;20.70;99.90
14079;DHT22;7115;50.150;8.568;2023-07-16T07:26:08;20.70;99.90
14079;DHT22;7115;50.150;8.568;2023-07-16T07:28:37;20.80;99.90
14079;DHT22;7115;50.150;8.568;2023-07-16T07:31:04;20.90;99.90
14079;DHT22;7115;50.150;8.568;2023-07-16T07:33:31;20.90;99.90
14079;DHT22;7115;50.150;8.568;2023-07-16T07:35:59;20.90;99.90
14079;DHT22;7115;50.150;8.568;2023-07-16T07:38:26;20.90;99.90
14079;DHT22;7115;50.150;8.568;2023-07-16T07:40:53;21.00;99.90
14079;DHT22;7115;50.150;8.568;2023-07-16T07:43:20;21.00;99.90
14079;DHT22;7115;50.150;8.568;2023-07-16T07:45:48;21.00;99.90
14079;DHT22;7115;50.150;8.568;2023-07-16T07:48:15;21.00;99.90
14079;DHT22;7115;50.150;8.568;2023-07-16T07:50:42;21.10;99.90
14079;DHT22;7115;50.150;8.568;2023-07-16T07:53:09;21.20;99.90
14079;DHT22;7115;50.150;8.568;2023-07-16T07:55:36;21.20;99.90
14079;DHT22;7115;50.150;8.568;2023-07-16T07:58:03;21.30;99.90
14079;DHT22;7115;50.150;8.568;2023-07-16T08:00:30;21.30;99.90
14079;DHT22;7115;50.150;8.568;2023-07-16T08:02:58;21.30;99.90
14079;DHT22;7115;50.150;8.568;2023-07-16T08:05:25;21.30;99.90
14079;DHT22;7115;50.150;8.568;2023-07-16T08:07:52;21.30;99.90
14079;DHT22;7115;50.150;8.568;2023-07-16T08:10:20;21.30;99.90
14079;DHT22;7115;50.150;8.568;2023-07-16T08:12:47;21.40;99.90
14079;DHT22;7115;50.150;8.568;2023-07-16T08:15:14;21.50;99.90
14079;DHT22;7115;50.150;8.568;2023-07-16T08:17:42;21.50;99.90
14079;DHT22;7115;50.150;8.568;2023-07-16T08:20:11;21.50;99.90
14079;DHT22;7115;50.150;8.568;2023-07-16T08:22:39;21.60;99.90
14079;DHT22;7115;50.150;8.568;2023-07-16T08:25:07;21.60;99.90
14079;DHT22;7115;50.150;8.568;2023-07-16T08:27:34;21.80;99.90
14079;DHT22;7115;50.150;8.568;2023-07-16T08:30:02;21.90;99.90
14079;DHT22;7115;50.150;8.568;2023-07-16T08:32:29;21.90;99.90
14079;DHT22;7115;50.150;8.568;2023-07-16T08:34:56;22.00;99.90
14079;DHT22;7115;50.150;8.568;2023-07-16T08:37:24;22.10;99.90
14079;DHT22;7115;50.150;8.568;2023-07-16T08:39:52;22.10;99.90
14079;DHT22;7115;50.150;8.568;2023-07-16T08:42:20;22.10;99.90
14079;DHT22;7115;50.150;8.568;2023-07-16T08:44:48;22.20;99.70
14079;DHT22;7115;50.150;8.568;2023-07-16T08:47:16;22.20;99.50
14079;DHT22;7115;50.150;8.568;2023-07-16T08:49:50;22.40;99.30
14079;DHT22;7115;50.150;8.568;2023-07-16T08:52:20;22.50;99.10
14079;DHT22;7115;50.150;8.568;2023-07-16T08:54:48;22.40;98.80
14079;DHT22;7115;50.150;8.568;2023-07-16T08:57:15;22.70;98.80
14079;DHT22;7115;50.150;8.568;2023-07-16T08:59:43;22.80;98.70
14079;DHT22;7115;50.150;8.568;2023-07-16T09:02:11;22.90;98.50
14079;DHT22;7115;50.150;8.568;2023-07-16T09:04:39;22.90;98.20
14079;DHT22;7115;50.150;8.568;2023-07-16T09:07:06;22.90;97.90
14079;DHT22;7115;50.150;8.568;2023-07-16T09:09:33;22.90;97.70
14079;DHT22;7115;50.150;8.568;2023-07-16T09:12:01;23.00;97.70
14079;DHT22;7115;50.150;8.568;2023-07-16T09:14:28;23.10;97.70
14079;DHT22;7115;50.150;8.568;2023-07-16T09:16:55;23.10;97.50
14079;DHT22;7115;50.150;8.568;2023-07-16T09:19:24;23.10;97.30
14079;DHT22;7115;50.150;8.568;2023-07-16T09:21:52;23.10;97.20
14079;DHT22;7115;50.150;8.568;2023-07-16T09:24:19;23.10;96.90
14079;DHT22;7115;50.150;8.568;2023-07-16T09:26:48;23.10;96.90
14079;DHT22;7115;50.150;8.568;2023-07-16T09:29:16;23.10;96.80
14079;DHT22;7115;50.150;8.568;2023-07-16T09:31:55;23.20;96.60
14079;DHT22;7115;50.150;8.568;2023-07-16T09:34:22;23.20;96.30
14079;DHT22;7115;50.150;8.568;2023-07-16T09:36:50;23.20;96.40
14079;DHT22;7115;50.150;8.568;2023-07-16T09:39:17;23.20;96.30
14079;DHT22;7115;50.150;8.568;2023-07-16T09:41:45;23.10;96.10
14079;DHT22;7115;50.150;8.568;2023-07-16T09:44:13;23.10;96.20
14079;DHT22;7115;50.150;8.568;2023-07-16T09:46:42;23.20;96.20
14079;DHT22;7115;50.150;8.568;2023-07-16T09:49:11;23.30;96.10
14079;DHT22;7115;50.150;8.568;2023-07-16T09:51:38;23.30;95.80
14079;DHT22;7115;50.150;8.568;2023-07-16T09:54:06;23.40;95.50
14079;DHT22;7115;50.150;8.568;2023-07-16T09:56:35;23.30;95.30
14079;DHT22;7115;50.150;8.568;2023-07-16T09:59:06;23.30;95.00
14079;DHT22;7115;50.150;8.568;2023-07-16T10:01:36;23.30;95.00
14079;DHT22;7115;50.150;8.568;2023-07-16T10:04:15;23.50;94.90
14079;DHT22;7115;50.150;8.568;2023-07-16T10:06:53;23.60;94.50
14079;DHT22;7115;50.150;8.568;2023-07-16T10:09:34;23.70;94.20
14079;DHT22;7115;50.150;8.568;2023-07-16T10:12:10;23.60;93.90
14079;DHT22;7115;50.150;8.568;2023-07-16T10:14:40;23.70;93.80
14079;DHT22;7115;50.150;8.568;2023-07-16T10:17:07;23.60;93.70
14079;DHT22;7115;50.150;8.568;2023-07-16T10:19:47;23.60;93.40
14079;DHT22;7115;50.150;8.568;2023-07-16T10:22:14;23.60;93.30
14079;DHT22;7115;50.150;8.568;2023-07-16T10:24:41;23.70;93.10
14079;DHT22;7115;50.150;8.568;2023-07-16T10:27:08;23.70;92.90
14079;DHT22;7115;50.150;8.568;2023-07-16T10:29:35;23.80;92.60
14079;DHT22;7115;50.150;8.568;2023-07-16T10:32:05;23.90;92.20
14079;DHT22;7115;50.150;8.568;2023-07-16T10:34:35;24.00;91.90
14079;DHT22;7115;50.150;8.568;2023-07-16T10:37:03;24.00;91.70
14079;DHT22;7115;50.150;8.568;2023-07-16T10:39:32;24.00;91.40
14079;DHT22;7115;50.150;8.568;2023-07-16T10:41:59;24.00;91.40
14079;DHT22;7115;50.150;8.568;2023-07-16T10:44:27;24.00;91.20
14079;DHT22;7115;50.150;8.568;2023-07-16T10:46:54;24.00;91.20
14079;DHT22;7115;50.150;8.568;2023-07-16T10:49:28;24.10;91.30
14079;DHT22;7115;50.150;8.568;2023-07-16T10:51:57;24.30;91.00
14079;DHT22;7115;50.150;8.568;2023-07-16T10:54:25;24.40;91.00
14079;DHT22;7115;50.150;8.568;2023-07-16T10:56:52;24.50;90.30
14079;DHT22;7115;50.150;8.568;2023-07-16T10:59:19;24.50;90.00
14079;DHT22;7115;50.150;8.568;2023-07-16T11:01:46;24.60;89.60
14079;DHT22;7115;50.150;8.568;2023-07-16T11:04:13;24.60;89.20
14079;DHT22;7115;50.150;8.568;2023-07-16T11:06:40;24.70;89.10
14079;DHT22;7115;50.150;8.568;2023-07-16T11:09:08;24.80;88.90
14079;DHT22;7115;50.150;8.568;2023-07-16T11:11:37;25.00;88.60
14079;DHT22;7115;50.150;8.568;2023-07-16T11:14:05;25.00;88.10
14079;DHT22;7115;50.150;8.568;2023-07-16T11:16:33;25.10;87.30
14079;DHT22;7115;50.150;8.568;2023-07-16T11:19:03;25.10;86.30
14079;DHT22;7115;50.150;8.568;2023-07-16T11:21:30;25.20;86.30
14079;DHT22;7115;50.150;8.568;2023-07-16T11:24:07;25.30;86.00
14079;DHT22;7115;50.150;8.568;2023-07-16T11:26:36;25.40;85.70
14079;DHT22;7115;50.150;8.568;2023-07-16T11:29:12;25.50;85.10
14079;DHT22;7115;50.150;8.568;2023-07-16T11:31:40;25.40;84.00
14079;DHT22;7115;50.150;8.568;2023-07-16T11:34:13;25.30;83.70
14079;DHT22;7115;50.150;8.568;2023-07-16T11:36:40;25.20;83.20
14079;DHT22;7115;50.150;8.568;2023-07-16T11:39:06;25.30;83.30
14079;DHT22;7115;50.150;8.568;2023-07-16T11:41:33;25.30;82.80
14079;DHT22;7115;50.150;8.568;2023-07-16T11:44:02;25.20;82.20
14079;DHT22;7115;50.150;8.568;2023-07-16T11:46:31;25.10;81.90
14079;DHT22;7115;50.150;8.568;2023-07-16T11:48:59;25.20;81.70
14079;DHT22;7115;50.150;8.568;2023-07-16T11:51:27;25.30;81.40
14079;DHT22;7115;50.150;8.568;2023-07-16T11:53:56;25.50;80.90
14079;DHT22;7115;50.150;8.568;2023-07-16T11:56:23;25.50;80.50
14079;DHT22;7115;50.150;8.568;2023-07-16T11:58:50;25.60;80.20
14079;DHT22;7115;50.150;8.568;2023-07-16T12:01:18;25.80;79.90
14079;DHT22;7115;50.150;8.568;2023-07-16T12:03:45;25.90;79.00
14079;DHT22;7115;50.150;8.568;2023-07-16T12:06:12;25.80;78.70
14079;DHT22;7115;50.150;8.568;2023-07-16T12:08:39;26.00;79.00
14079;DHT22;7115;50.150;8.568;2023-07-16T12:11:06;26.10;77.90
14079;DHT22;7115;50.150;8.568;2023-07-16T12:13:33;26.20;77.60
14079;DHT22;7115;50.150;8.568;2023-07-16T12:15:59;26.20;77.10
14079;DHT22;7115;50.150;8.568;2023-07-16T12:18:28;26.20;76.90
14079;DHT22;7115;50.150;8.568;2023-07-16T12:20:57;26.20;76.90
14079;DHT22;7115;50.150;8.568;2023-07-16T12:23:24;26.20;76.90
14079;DHT22;7115;50.150;8.568;2023-07-16T12:25:51;26.10;76.40
14079;DHT22;7115;50.150;8.568;2023-07-16T12:28:18;26.10;76.20
14079;DHT22;7115;50.150;8.568;2023-07-16T12:30:44;26.20;75.70
14079;DHT22;7115;50.150;8.568;2023-07-16T12:33:11;26.10;75.00
14079;DHT22;7115;50.150;8.568;2023-07-16T12:35:39;26.00;74.50
14079;DHT22;7115;50.150;8.568;2023-07-16T12:38:06;26.00;74.60
14079;DHT22;7115;50.150;8.568;2023-07-16T12:40:33;26.10;74.50
14079;DHT22;7115;50.150;8.568;2023-07-16T12:43:06;26.30;74.30
14079;DHT22;7115;50.150;8.568;2023-07-16T12:45:33;26.20;73.60
14079;DHT22;7115;50.150;8.568;2023-07-16T12:48:00;26.20;73.10
14079;DHT22;7115;50.150;8.568;2023-07-16T12:50:27;26.30;73.30
14079;DHT22;7115;50.150;8.568;2023-07-16T12:52:56;26.40;73.40
14079;DHT22;7115;50.150;8.568;2023-07-16T12:55:23;26.50;73.10
14079;DHT22;7115;50.150;8.568;2023-07-16T12:57:50;26.60;72.60
14079;DHT22;7115;50.150;8.568;2023-07-16T13:00:17;26.70;72.10
14079;DHT22;7115;50.150;8.568;2023-07-16T13:02:44;26.80;71.70
14079;DHT22;7115;50.150;8.568;2023-07-16T13:05:11;26.80;71.40
14079;DHT22;7115;50.150;8.568;2023-07-16T13:07:38;26.80;71.40
14079;DHT22;7115;50.150;8.568;2023-07-16T13:10:09;26.70;71.10
14079;DHT22;7115;50.150;8.568;2023-07-16T13:12:49;26.70;71.10
14079;DHT22;7115;50.150;8.568;2023-07-16T13:15:16;26.60;70.90
14079;DHT22;7115;50.150;8.568;2023-07-16T13:17:43;26.70;71.10
14079;DHT22;7115;50.150;8.568;2023-07-16T13:20:11;26.80;70.90
14079;DHT22;7115;50.150;8.568;2023-07-16T13:22:38;26.90;70.70
14079;DHT22;7115;50.150;8.568;2023-07-16T13:25:07;27.00;70.50
14079;DHT22;7115;50.150;8.568;2023-07-16T13:27:34;27.20;70.00
14079;DHT22;7115;50.150;8.568;2023-07-16T13:30:01;27.10;69.10
14079;DHT22;7115;50.150;8.568;2023-07-16T13:32:28;27.00;68.80
14079;DHT22;7115;50.150;8.568;2023-07-16T13:34:55;26.90;68.50
14079;DHT22;7115;50.150;8.568;2023-07-16T13:37:22;26.80;68.50
14079;DHT22;7115;50.150;8.568;2023-07-16T13:39:49;26.70;68.90
14079;DHT22;7115;50.150;8.568;2023-07-16T13:42:17;26.70;69.20
14079;DHT22;7115;50.150;8.568;2023-07-16T13:44:49;26.90;69.40
14079;DHT22;7115;50.150;8.568;2023-07-16T13:47:16;27.00;68.80
14079;DHT22;7115;50.150;8.568;2023-07-16T13:49:43;27.00;68.60
14079;DHT22;7115;50.150;8.568;2023-07-16T13:52:10;27.10;68.40
14079;DHT22;7115;50.150;8.568;2023-07-16T13:54:37;27.10;68.20
14079;DHT22;7115;50.150;8.568;2023-07-16T13:57:08;27.10;68.00
14079;DHT22;7115;50.150;8.568;2023-07-16T13:59:36;27.10;67.90
14079;DHT22;7115;50.150;8.568;2023-07-16T14:02:04;27.10;67.90
14079;DHT22;7115;50.150;8.568;2023-07-16T14:04:32;27.10;68.30
14079;DHT22;7115;50.150;8.568;2023-07-16T14:06:59;27.30;68.00
14079;DHT22;7115;50.150;8.568;2023-07-16T14:09:26;27.20;67.20
14079;DHT22;7115;50.150;8.568;2023-07-16T14:11:53;27.10;67.20
14079;DHT22;7115;50.150;8.568;2023-07-16T14:14:21;27.00;67.30
14079;DHT22;7115;50.150;8.568;2023-07-16T14:16:49;26.80;67.30
14079;DHT22;7115;50.150;8.568;2023-07-16T14:19:16;26.70;67.60
14079;DHT22;7115;50.150;8.568;2023-07-16T14:21:43;26.60;67.70
14079;DHT22;7115;50.150;8.568;2023-07-16T14:24:10;26.50;67.60
14079;DHT22;7115;50.150;8.568;2023-07-16T14:26:37;26.40;67.80
14079;DHT22;7115;50.150;8.568;2023-07-16T14:29:04;26.40;68.00
14079;DHT22;7115;50.150;8.568;2023-07-16T14:31:31;26.50;68.00
14079;DHT22;7115;50.150;8.568;2023-07-16T14:33:59;26.50;67.90
14079;DHT22;7115;50.150;8.568;2023-07-16T14:36:26;26.50;67.70
14079;DHT22;7115;50.150;8.568;2023-07-16T14:38:54;26.50;67.60
14079;DHT22;7115;50.150;8.568;2023-07-16T14:41:21;26.40;67.70
14079;DHT22;7115;50.150;8.568;2023-07-16T14:43:48;26.30;67.70
14079;DHT22;7115;50.150;8.568;2023-07-16T14:46:16;26.20;68.00
14079;DHT22;7115;50.150;8.568;2023-07-16T14:48:44;26.40;68.20
14079;DHT22;7115;50.150;8.568;2023-07-16T14:51:13;26.20;68.10
14079;DHT22;7115;50.150;8.568;2023-07-16T14:53:40;26.20;68.10
14079;DHT22;7115;50.150;8.568;2023-07-16T14:56:07;26.20;68.00
14079;DHT22;7115;50.150;8.568;2023-07-16T14:58:34;26.10;68.10
14079;DHT22;7115;50.150;8.568;2023-07-16T15:01:03;26.00;68.10
14079;DHT22;7115;50.150;8.568;2023-07-16T15:03:34;26.00;68.20
14079;DHT22;7115;50.150;8.568;2023-07-16T15:06:02;25.90;68.30
14079;DHT22;7115;50.150;8.568;2023-07-16T15:08:31;25.90;68.50
14079;DHT22;7115;50.150;8.568;2023-07-16T15:10:59;25.90;68.60
14079;DHT22;7115;50.150;8.568;2023-07-16T15:13:26;25.80;68.50
14079;DHT22;7115;50.150;8.568;2023-07-16T15:15:55;26.10;67.40
14079;DHT22;7115;50.150;8.568;2023-07-16T15:18:24;25.90;67.70
14079;DHT22;7115;50.150;8.568;2023-07-16T15:20:56;25.90;68.00
14079;DHT22;7115;50.150;8.568;2023-07-16T15:23:24;25.90;67.90
14079;DHT22;7115;50.150;8.568;2023-07-16T15:25:53;25.90;68.10
14079;DHT22;7115;50.150;8.568;2023-07-16T15:28:20;25.90;68.80
14079;DHT22;7115;50.150;8.568;2023-07-16T15:30:47;25.90;68.00
14079;DHT22;7115;50.150;8.568;2023-07-16T15:33:14;26.00;68.00
14079;DHT22;7115;50.150;8.568;2023-07-16T15:35:41;26.10;68.70
14079;DHT22;7115;50.150;8.568;2023-07-16T15:38:08;26.00;67.70
14079;DHT22;7115;50.150;8.568;2023-07-16T15:40:35;26.00;67.60
14079;DHT22;7115;50.150;8.568;2023-07-16T15:43:03;26.10;67.70
14079;DHT22;7115;50.150;8.568;2023-07-16T15:45:30;26.10;67.70
14079;DHT22;7115;50.150;8.568;2023-07-16T15:47:57;26.10;67.70